Terminal Aerodrome Forecast
Issued by NWS Cleveland, OH

Home | Current Version | Previous Version | Text Only | Print | Product List | Glossary Off
Versions: 1 2 3 4 5 6 7 8 9 10 11 12 13 14 15 16 17 18 19 20

000
FTUS41 KCLE 240358 AAA
TAFERI
TAF AMD
KERI 240358Z 2404/2424 23004KT P6SM SCT040 BKN100
      TEMPO 2404/2408 3SM -TSRA BR BKN025CB
     FM241200 26007KT 6SM BR VCSH BKN030
     FM241600 29012KT P6SM VCSH BKN035=

USA.gov is the U.S. government's official web portal to all federal, state and local government web resources and services.